sensor_id;sensor_type;location;lat;lon;timestamp;P1;durP1;ratioP1;P2;durP2;ratioP2
78342;SDS011;67618;52.444;21.192;2023-02-28T00:03:55;15.10;;;7.30;;
78342;SDS011;67618;52.444;21.192;2023-02-28T00:13:57;21.70;;;8.20;;
78342;SDS011;67618;52.444;21.192;2023-02-28T00:23:59;12.60;;;4.40;;
78342;SDS011;67618;52.444;21.192;2023-02-28T00:34:01;19.50;;;8.50;;
78342;SDS011;67618;52.444;21.192;2023-02-28T00:44:02;15.00;;;7.30;;
78342;SDS011;67618;52.444;21.192;2023-02-28T00:54:03;14.80;;;7.40;;
78342;SDS011;67618;52.444;21.192;2023-02-28T01:04:05;17.30;;;7.30;;
78342;SDS011;67618;52.444;21.192;2023-02-28T01:14:07;18.10;;;7.90;;
78342;SDS011;67618;52.444;21.192;2023-02-28T01:24:09;18.10;;;7.20;;
78342;SDS011;67618;52.444;21.192;2023-02-28T01:34:11;14.80;;;7.60;;
78342;SDS011;67618;52.444;21.192;2023-02-28T01:54:52;13.30;;;6.60;;
78342;SDS011;67618;52.444;21.192;2023-02-28T02:05:00;16.30;;;7.50;;
78342;SDS011;67618;52.444;21.192;2023-02-28T02:25:43;14.40;;;7.50;;
78342;SDS011;67618;52.444;21.192;2023-02-28T02:46:04;14.60;;;7.60;;
78342;SDS011;67618;52.444;21.192;2023-02-28T02:56:10;10.10;;;4.40;;
78342;SDS011;67618;52.444;21.192;2023-02-28T03:06:14;16.00;;;7.70;;
78342;SDS011;67618;52.444;21.192;2023-02-28T03:26:42;17.50;;;8.80;;
78342;SDS011;67618;52.444;21.192;2023-02-28T03:36:53;26.50;;;10.80;;
78342;SDS011;67618;52.444;21.192;2023-02-28T03:47:01;26.70;;;8.80;;
78342;SDS011;67618;52.444;21.192;2023-02-28T04:07:24;29.40;;;12.80;;
78342;SDS011;67618;52.444;21.192;2023-02-28T04:17:25;23.20;;;12.00;;
78342;SDS011;67618;52.444;21.192;2023-02-28T04:27:26;17.90;;;10.10;;
78342;SDS011;67618;52.444;21.192;2023-02-28T04:37:28;28.50;;;12.90;;
78342;SDS011;67618;52.444;21.192;2023-02-28T04:47:29;41.50;;;18.20;;
78342;SDS011;67618;52.444;21.192;2023-02-28T04:57:31;23.90;;;10.50;;
78342;SDS011;67618;52.444;21.192;2023-02-28T05:07:32;20.90;;;11.10;;
78342;SDS011;67618;52.444;21.192;2023-02-28T05:17:33;30.40;;;14.10;;
78342;SDS011;67618;52.444;21.192;2023-02-28T05:27:35;31.70;;;12.60;;
78342;SDS011;67618;52.444;21.192;2023-02-28T05:37:37;34.80;;;16.10;;
78342;SDS011;67618;52.444;21.192;2023-02-28T05:47:39;35.80;;;17.30;;
78342;SDS011;67618;52.444;21.192;2023-02-28T05:57:41;22.50;;;12.10;;
78342;SDS011;67618;52.444;21.192;2023-02-28T06:07:42;32.60;;;18.30;;
78342;SDS011;67618;52.444;21.192;2023-02-28T06:17:44;39.00;;;16.90;;
78342;SDS011;67618;52.444;21.192;2023-02-28T06:27:46;61.30;;;24.60;;
78342;SDS011;67618;52.444;21.192;2023-02-28T06:37:47;34.50;;;16.30;;
78342;SDS011;67618;52.444;21.192;2023-02-28T06:47:48;35.60;;;15.20;;
78342;SDS011;67618;52.444;21.192;2023-02-28T06:57:50;34.30;;;17.30;;
78342;SDS011;67618;52.444;21.192;2023-02-28T07:07:51;32.20;;;13.30;;
78342;SDS011;67618;52.444;21.192;2023-02-28T07:17:52;31.90;;;14.10;;
78342;SDS011;67618;52.444;21.192;2023-02-28T07:27:54;18.40;;;9.30;;
78342;SDS011;67618;52.444;21.192;2023-02-28T07:37:57;15.40;;;8.20;;
78342;SDS011;67618;52.444;21.192;2023-02-28T07:47:59;8.20;;;4.30;;
78342;SDS011;67618;52.444;21.192;2023-02-28T07:58:01;9.90;;;6.20;;
78342;SDS011;67618;52.444;21.192;2023-02-28T08:08:02;7.90;;;4.80;;
78342;SDS011;67618;52.444;21.192;2023-02-28T08:18:04;7.40;;;4.70;;
78342;SDS011;67618;52.444;21.192;2023-02-28T08:28:05;7.30;;;4.20;;
78342;SDS011;67618;52.444;21.192;2023-02-28T08:38:07;10.50;;;4.60;;
78342;SDS011;67618;52.444;21.192;2023-02-28T08:48:08;30.20;;;15.20;;
78342;SDS011;67618;52.444;21.192;2023-02-28T08:58:10;9.20;;;5.40;;
78342;SDS011;67618;52.444;21.192;2023-02-28T09:08:11;7.00;;;4.60;;
78342;SDS011;67618;52.444;21.192;2023-02-28T09:18:12;7.40;;;4.70;;
78342;SDS011;67618;52.444;21.192;2023-02-28T09:28:14;7.20;;;4.90;;
78342;SDS011;67618;52.444;21.192;2023-02-28T09:38:16;8.20;;;4.50;;
78342;SDS011;67618;52.444;21.192;2023-02-28T09:48:21;7.10;;;4.40;;
78342;SDS011;67618;52.444;21.192;2023-02-28T09:58:28;7.90;;;5.00;;
78342;SDS011;67618;52.444;21.192;2023-02-28T10:08:40;7.20;;;4.40;;
78342;SDS011;67618;52.444;21.192;2023-02-28T10:18:59;6.80;;;4.40;;
78342;SDS011;67618;52.444;21.192;2023-02-28T10:29:03;10.70;;;5.70;;
78342;SDS011;67618;52.444;21.192;2023-02-28T10:49:48;6.70;;;4.10;;
78342;SDS011;67618;52.444;21.192;2023-02-28T10:59:52;7.30;;;3.90;;
78342;SDS011;67618;52.444;21.192;2023-02-28T11:10:06;7.50;;;5.20;;
78342;SDS011;67618;52.444;21.192;2023-02-28T11:20:21;8.60;;;5.20;;
78342;SDS011;67618;52.444;21.192;2023-02-28T11:30:27;11.30;;;7.30;;
78342;SDS011;67618;52.444;21.192;2023-02-28T12:01:28;11.00;;;5.20;;
78342;SDS011;67618;52.444;21.192;2023-02-28T12:32:30;7.80;;;4.60;;
78342;SDS011;67618;52.444;21.192;2023-02-28T12:42:36;8.60;;;5.20;;
78342;SDS011;67618;52.444;21.192;2023-02-28T13:03:02;11.70;;;5.70;;
78342;SDS011;67618;52.444;21.192;2023-02-28T13:13:28;7.70;;;5.00;;
78342;SDS011;67618;52.444;21.192;2023-02-28T13:54:03;6.50;;;4.70;;
78342;SDS011;67618;52.444;21.192;2023-02-28T14:04:39;7.80;;;4.40;;
78342;SDS011;67618;52.444;21.192;2023-02-28T14:14:55;6.90;;;3.90;;
78342;SDS011;67618;52.444;21.192;2023-02-28T14:25:11;7.80;;;4.60;;
78342;SDS011;67618;52.444;21.192;2023-02-28T14:35:54;10.60;;;7.80;;
78342;SDS011;67618;52.444;21.192;2023-02-28T14:46:06;10.60;;;6.70;;
78342;SDS011;67618;52.444;21.192;2023-02-28T14:56:17;11.60;;;5.90;;
78342;SDS011;67618;52.444;21.192;2023-02-28T15:06:25;8.40;;;4.40;;
78342;SDS011;67618;52.444;21.192;2023-02-28T15:16:34;7.10;;;4.40;;
78342;SDS011;67618;52.444;21.192;2023-02-28T15:26:52;8.60;;;5.30;;
78342;SDS011;67618;52.444;21.192;2023-02-28T15:36:56;11.90;;;5.70;;
78342;SDS011;67618;52.444;21.192;2023-02-28T15:47:12;10.50;;;6.20;;
78342;SDS011;67618;52.444;21.192;2023-02-28T15:57:24;14.90;;;8.00;;
78342;SDS011;67618;52.444;21.192;2023-02-28T16:07:29;13.50;;;7.10;;
78342;SDS011;67618;52.444;21.192;2023-02-28T16:17:34;23.80;;;11.30;;
78342;SDS011;67618;52.444;21.192;2023-02-28T16:27:39;35.30;;;18.10;;
78342;SDS011;67618;52.444;21.192;2023-02-28T16:37:41;31.20;;;13.70;;
78342;SDS011;67618;52.444;21.192;2023-02-28T16:47:45;15.90;;;7.80;;
78342;SDS011;67618;52.444;21.192;2023-02-28T16:57:51;34.60;;;14.50;;
78342;SDS011;67618;52.444;21.192;2023-02-28T17:07:57;25.40;;;11.10;;
78342;SDS011;67618;52.444;21.192;2023-02-28T17:17:58;23.40;;;10.80;;
78342;SDS011;67618;52.444;21.192;2023-02-28T17:28:00;42.30;;;16.90;;
78342;SDS011;67618;52.444;21.192;2023-02-28T17:38:01;94.80;;;40.30;;
78342;SDS011;67618;52.444;21.192;2023-02-28T17:48:02;118.40;;;54.80;;
78342;SDS011;67618;52.444;21.192;2023-02-28T17:58:04;69.10;;;31.60;;
78342;SDS011;67618;52.444;21.192;2023-02-28T18:08:05;51.60;;;20.40;;
78342;SDS011;67618;52.444;21.192;2023-02-28T18:18:07;88.70;;;36.70;;
78342;SDS011;67618;52.444;21.192;2023-02-28T18:28:08;30.70;;;13.10;;
78342;SDS011;67618;52.444;21.192;2023-02-28T18:38:12;45.80;;;22.80;;
78342;SDS011;67618;52.444;21.192;2023-02-28T18:48:18;28.60;;;12.40;;
78342;SDS011;67618;52.444;21.192;2023-02-28T18:58:20;36.20;;;19.10;;
78342;SDS011;67618;52.444;21.192;2023-02-28T19:08:22;41.50;;;17.80;;
78342;SDS011;67618;52.444;21.192;2023-02-28T19:18:24;37.90;;;14.50;;
78342;SDS011;67618;52.444;21.192;2023-02-28T19:28:28;24.70;;;11.60;;
78342;SDS011;67618;52.444;21.192;2023-02-28T19:38:30;30.50;;;14.70;;
78342;SDS011;67618;52.444;21.192;2023-02-28T19:48:31;31.20;;;14.20;;
78342;SDS011;67618;52.444;21.192;2023-02-28T19:58:33;33.90;;;15.50;;
78342;SDS011;67618;52.444;21.192;2023-02-28T20:08:35;46.70;;;18.70;;
78342;SDS011;67618;52.444;21.192;2023-02-28T20:18:38;58.10;;;28.00;;
78342;SDS011;67618;52.444;21.192;2023-02-28T20:28:40;57.30;;;25.30;;
78342;SDS011;67618;52.444;21.192;2023-02-28T20:38:43;48.20;;;21.30;;
78342;SDS011;67618;52.444;21.192;2023-02-28T20:48:44;62.10;;;23.80;;
78342;SDS011;67618;52.444;21.192;2023-02-28T20:58:46;40.30;;;17.90;;
78342;SDS011;67618;52.444;21.192;2023-02-28T21:08:49;34.70;;;13.80;;
78342;SDS011;67618;52.444;21.192;2023-02-28T21:18:50;33.30;;;13.50;;
78342;SDS011;67618;52.444;21.192;2023-02-28T21:29:02;36.50;;;17.00;;
78342;SDS011;67618;52.444;21.192;2023-02-28T21:39:11;23.60;;;11.50;;
78342;SDS011;67618;52.444;21.192;2023-02-28T21:49:14;31.20;;;14.00;;
78342;SDS011;67618;52.444;21.192;2023-02-28T21:59:17;37.90;;;16.30;;
78342;SDS011;67618;52.444;21.192;2023-02-28T22:09:19;37.80;;;16.20;;
78342;SDS011;67618;52.444;21.192;2023-02-28T22:19:21;35.70;;;17.20;;
78342;SDS011;67618;52.444;21.192;2023-02-28T22:29:23;42.40;;;18.40;;
78342;SDS011;67618;52.444;21.192;2023-02-28T22:39:24;31.40;;;13.70;;
78342;SDS011;67618;52.444;21.192;2023-02-28T22:49:26;21.40;;;12.00;;
78342;SDS011;67618;52.444;21.192;2023-02-28T22:59:28;34.90;;;16.10;;
78342;SDS011;67618;52.444;21.192;2023-02-28T23:09:29;26.70;;;13.10;;
78342;SDS011;67618;52.444;21.192;2023-02-28T23:19:30;38.50;;;17.40;;
78342;SDS011;67618;52.444;21.192;2023-02-28T23:29:32;35.50;;;15.90;;
78342;SDS011;67618;52.444;21.192;2023-02-28T23:39:34;28.90;;;13.40;;
78342;SDS011;67618;52.444;21.192;2023-02-28T23:49:35;46.70;;;22.30;;
78342;SDS011;67618;52.444;21.192;2023-02-28T23:59:37;31.40;;;14.10;;
